Time;durP1;ratioP1;P1;durP2;ratioP2;P2;SDS_P1;SDS_P2;PMS_P1;PMS_P2;Temp;Humidity;BMP_temperature;BMP_pressure;BME280_temperature;BME280_humidity;BME280_pressure;Samples;Min_cycle;Max_cycle;Signal;HPM_P1;HPM_P2
2022/09/08 00:00:58;;;;;;;7.20;5.93;;;15.50;99.90;;;;;;5038160;28;20430;-88
2022/09/08 00:03:27;;;;;;;6.23;5.37;;;15.60;99.90;;;;;;5038729;28;20175;-88
2022/09/08 00:05:57;;;;;;;7.63;5.73;;;15.50;99.90;;;;;;5058285;28;20176;-90
2022/09/08 00:08:24;;;;;;;6.63;5.30;;;15.50;99.90;;;;;;5056186;28;20426;-87
2022/09/08 00:10:55;;;;;;;7.63;5.93;;;15.40;99.90;;;;;;5056303;28;20413;-86
2022/09/08 00:13:22;;;;;;;7.97;6.50;;;15.40;99.90;;;;;;5057630;28;20417;-89
2022/09/08 00:15:49;;;;;;;6.40;5.80;;;15.50;99.90;;;;;;5037028;28;20486;-85
2022/09/08 00:18:15;;;;;;;8.40;5.17;;;15.40;99.90;;;;;;5037987;28;20422;-86
2022/09/08 00:20:40;;;;;;;8.30;6.37;;;15.30;99.90;;;;;;5056186;28;20435;-85
2022/09/08 00:23:06;;;;;;;6.40;5.33;;;15.30;99.90;;;;;;5055922;28;20407;-90
2022/09/08 00:25:32;;;;;;;5.80;4.53;;;15.30;99.90;;;;;;5055922;28;20191;-88
2022/09/08 00:27:57;;;;;;;9.33;5.50;;;15.30;99.90;;;;;;5056122;28;20245;-85
2022/09/08 00:30:23;;;;;;;7.77;6.13;;;15.30;99.90;;;;;;5056701;28;20179;-85
2022/09/08 00:32:49;;;;;;;9.30;8.30;;;15.30;99.90;;;;;;5055914;28;20175;-92
2022/09/08 00:35:18;;;;;;;7.47;6.77;;;15.30;99.90;;;;;;5055968;28;20242;-90
2022/09/08 00:37:47;;;;;;;7.00;6.30;;;15.30;99.90;;;;;;5054867;28;20586;-88
2022/09/08 00:40:13;;;;;;;6.73;6.07;;;15.20;99.90;;;;;;5038490;28;20450;-92
2022/09/08 00:42:38;;;;;;;7.17;5.87;;;15.20;99.90;;;;;;5038417;28;20430;-88
2022/09/08 00:45:08;;;;;;;7.73;6.83;;;15.20;99.90;;;;;;5037755;28;20429;-89
2022/09/08 00:47:44;;;;;;;7.70;6.60;;;15.20;99.90;;;;;;5055718;28;20176;-86
2022/09/08 00:50:21;;;;;;;8.93;7.23;;;15.20;99.90;;;;;;5042168;28;20423;-86
2022/09/08 00:53:00;;;;;;;9.20;7.37;;;15.20;99.90;;;;;;5058355;28;20410;-88
2022/09/08 00:55:29;;;;;;;6.90;6.20;;;15.10;99.90;;;;;;5056299;28;20469;-87
2022/09/08 00:57:55;;;;;;;9.07;8.10;;;15.20;99.90;;;;;;5037613;28;20420;-88
2022/09/08 01:00:21;;;;;;;9.13;5.97;;;15.20;99.90;;;;;;5055100;28;20893;-89
2022/09/08 01:02:47;;;;;;;8.73;7.23;;;15.10;99.90;;;;;;5057327;28;20164;-88
2022/09/08 01:05:19;;;;;;;7.33;6.07;;;15.10;99.90;;;;;;5037427;28;20905;-89
2022/09/08 01:13:56;;;;;;;7.60;6.23;;;15.00;99.90;;;;;;5049182;28;20430;-86
2022/09/08 01:16:21;;;;;;;7.70;6.60;;;15.10;99.90;;;;;;5054602;28;20529;-90
2022/09/08 01:18:48;;;;;;;7.13;6.43;;;15.10;99.90;;;;;;5055620;28;20963;-87
2022/09/08 01:21:37;;;;;;;8.83;7.80;;;15.10;99.90;;;;;;5054849;28;20204;-90
2022/09/08 01:24:18;;;;;;;7.50;6.67;;;15.10;99.90;;;;;;5056194;28;20406;-90
2022/09/08 01:27:02;;;;;;;9.10;7.40;;;15.10;99.90;;;;;;5039196;28;20421;-92
2022/09/08 01:29:27;;;;;;;8.70;6.93;;;15.10;99.90;;;;;;5037512;28;20426;-89
2022/09/08 01:31:53;;;;;;;11.03;7.13;;;15.10;99.90;;;;;;5055341;28;20469;-86
2022/09/08 01:34:19;;;;;;;7.60;6.87;;;15.10;99.90;;;;;;5055086;28;20163;-89
2022/09/08 01:36:45;;;;;;;8.23;7.13;;;15.20;99.90;;;;;;5037309;28;20176;-87
2022/09/08 01:39:10;;;;;;;8.10;7.30;;;15.10;99.90;;;;;;5040638;28;20442;-90
2022/09/08 01:41:36;;;;;;;7.53;6.60;;;15.00;99.90;;;;;;5038688;28;20182;-89
2022/09/08 01:44:02;;;;;;;10.03;7.50;;;15.00;99.90;;;;;;5036966;28;20173;-92
2022/09/08 01:46:30;;;;;;;9.00;7.20;;;15.00;99.90;;;;;;5055595;28;20690;-88
2022/09/08 01:48:56;;;;;;;7.90;6.50;;;14.90;99.90;;;;;;5060072;28;20409;-89
2022/09/08 01:51:21;;;;;;;7.00;6.33;;;15.00;99.90;;;;;;5036456;28;21039;-85
2022/09/08 01:53:47;;;;;;;7.67;6.97;;;15.00;99.90;;;;;;5054176;28;20191;-88
2022/09/08 01:56:12;;;;;;;7.73;5.93;;;15.00;99.90;;;;;;5036014;28;20638;-87
2022/09/08 01:58:38;;;;;;;7.67;6.80;;;15.00;99.90;;;;;;5053986;28;20176;-89
2022/09/08 02:01:04;;;;;;;7.20;5.97;;;15.00;99.90;;;;;;5035771;28;20585;-85
2022/09/08 02:03:32;;;;;;;8.53;7.10;;;15.10;99.90;;;;;;5053663;28;20163;-85
2022/09/08 02:06:02;;;;;;;7.97;6.13;;;15.10;99.90;;;;;;5053825;28;20413;-85
2022/09/08 02:08:28;;;;;;;7.30;6.60;;;15.00;99.90;;;;;;5052629;28;20498;-83
2022/09/08 02:10:55;;;;;;;6.17;5.57;;;15.00;99.90;;;;;;5036420;28;20488;-87
2022/09/08 02:13:22;;;;;;;6.67;6.07;;;15.00;99.90;;;;;;5054248;28;20414;-87
2022/09/08 02:15:48;;;;;;;9.53;8.63;;;14.80;99.90;;;;;;5035947;28;20848;-86
2022/09/08 02:18:13;;;;;;;7.97;7.27;;;14.80;99.90;;;;;;5036067;28;20430;-91
2022/09/08 02:20:38;;;;;;;6.27;5.67;;;14.70;99.90;;;;;;5055273;28;20488;-88
2022/09/08 02:23:04;;;;;;;8.70;7.10;;;14.60;99.90;;;;;;5057935;28;20175;-89
2022/09/08 02:25:30;;;;;;;9.93;6.30;;;14.60;99.90;;;;;;5055313;28;20203;-88
2022/09/08 02:27:55;;;;;;;6.40;5.77;;;14.50;99.90;;;;;;5036429;28;20175;-84
2022/09/08 02:30:22;;;;;;;8.97;6.67;;;14.50;99.90;;;;;;5053910;28;20176;-89
2022/09/08 02:32:49;;;;;;;7.70;6.00;;;14.60;99.90;;;;;;5036722;28;20172;-86
2022/09/08 02:35:15;;;;;;;6.70;6.03;;;14.60;99.90;;;;;;5053449;28;20498;-86
2022/09/08 02:37:40;;;;;;;7.93;6.37;;;14.60;99.90;;;;;;5035444;28;20957;-91
2022/09/08 02:40:09;;;;;;;6.47;5.30;;;14.50;99.90;;;;;;5035998;28;20455;-90
2022/09/08 02:42:36;;;;;;;8.53;6.03;;;14.50;99.90;;;;;;5036350;28;20247;-90
2022/09/08 02:45:02;;;;;;;6.67;6.07;;;14.50;99.90;;;;;;5020165;28;20573;-89
2022/09/08 02:47:28;;;;;;;7.83;6.43;;;14.50;99.90;;;;;;5036090;28;20431;-88
2022/09/08 02:49:53;;;;;;;6.90;5.20;;;14.50;99.90;;;;;;5037427;28;20466;-93
2022/09/08 02:52:25;;;;;;;9.20;6.10;;;14.60;99.90;;;;;;5037695;28;20199;-90
2022/09/08 02:54:51;;;;;;;6.30;5.47;;;14.60;99.90;;;;;;5036407;28;20225;-88
2022/09/08 02:57:16;;;;;;;6.13;4.87;;;14.60;99.90;;;;;;5036527;28;20924;-90
2022/09/08 02:59:45;;;;;;;6.13;5.53;;;14.60;99.90;;;;;;5036305;28;20428;-90
2022/09/08 03:02:10;;;;;;;6.30;4.70;;;14.60;99.90;;;;;;5036401;28;20592;-89
2022/09/08 03:04:36;;;;;;;6.73;5.63;;;14.60;99.90;;;;;;5036295;28;20458;-90
2022/09/08 03:07:02;;;;;;;7.33;6.30;;;14.50;99.90;;;;;;5036330;28;20176;-90
2022/09/08 03:09:28;;;;;;;6.63;5.27;;;14.50;99.90;;;;;;5036342;28;20213;-91
2022/09/08 03:11:53;;;;;;;7.63;6.00;;;14.60;99.90;;;;;;5036482;28;20426;-92
2022/09/08 03:14:19;;;;;;;6.37;5.67;;;14.60;99.90;;;;;;5036150;28;20172;-90
2022/09/08 03:16:46;;;;;;;8.47;5.33;;;14.60;99.90;;;;;;5035712;28;20229;-90
2022/09/08 03:19:11;;;;;;;7.57;6.00;;;14.60;99.90;;;;;;5035735;28;20187;-91
2022/09/08 03:21:37;;;;;;;7.23;5.90;;;14.60;99.90;;;;;;5036146;28;20470;-90
2022/09/08 03:24:05;;;;;;;8.10;6.17;;;14.70;99.90;;;;;;5036062;28;20258;-89
2022/09/08 03:26:30;;;;;;;6.53;5.30;;;14.60;99.90;;;;;;5036050;28;20220;-90
2022/09/08 03:28:56;;;;;;;6.03;5.43;;;14.60;99.90;;;;;;5036034;28;20426;-90
2022/09/08 03:31:22;;;;;;;5.63;4.73;;;14.60;99.90;;;;;;5035231;28;20180;-90
2022/09/08 03:33:48;;;;;;;6.60;5.60;;;14.60;99.90;;;;;;5035477;28;20176;-90
2022/09/08 03:36:15;;;;;;;6.83;6.23;;;14.70;99.90;;;;;;5035278;28;20481;-89
2022/09/08 03:38:41;;;;;;;6.50;5.20;;;14.70;99.90;;;;;;5035624;28;20418;-91
2022/09/08 03:41:10;;;;;;;4.60;4.17;;;14.70;99.90;;;;;;5035651;28;20437;-90
2022/09/08 03:43:36;;;;;;;5.67;4.90;;;14.70;99.90;;;;;;5035628;28;20460;-90
2022/09/08 03:46:07;;;;;;;6.23;5.57;;;14.70;99.90;;;;;;5035107;28;20417;-90
2022/09/08 03:48:34;;;;;;;6.13;5.13;;;14.70;99.90;;;;;;5035651;28;20163;-89
2022/09/08 03:51:11;;;;;;;7.20;6.50;;;14.60;99.90;;;;;;5035219;28;20424;-90
2022/09/08 03:53:36;;;;;;;10.07;4.73;;;14.60;99.90;;;;;;5035441;28;20988;-89
2022/09/08 03:56:08;;;;;;;6.50;5.50;;;14.50;99.90;;;;;;5035513;28;20470;-89
2022/09/08 03:58:35;;;;;;;7.53;5.67;;;14.60;99.90;;;;;;5035466;28;20203;-90
2022/09/08 04:01:01;;;;;;;5.33;4.53;;;14.60;99.90;;;;;;5034994;28;20640;-89
2022/09/08 04:03:29;;;;;;;4.87;4.40;;;14.60;99.90;;;;;;5035314;28;20425;-89
2022/09/08 04:05:54;;;;;;;5.67;4.53;;;14.60;99.90;;;;;;5036205;28;21168;-88
2022/09/08 04:08:20;;;;;;;5.33;4.73;;;14.60;99.90;;;;;;5035645;28;20418;-89
2022/09/08 04:10:45;;;;;;;6.87;6.00;;;14.60;99.90;;;;;;5035103;28;20199;-88
2022/09/08 04:13:13;;;;;;;6.00;4.20;;;14.50;99.90;;;;;;5035315;28;20204;-90
2022/09/08 04:15:39;;;;;;;8.07;4.57;;;14.50;99.90;;;;;;5035270;28;20207;-91
2022/09/08 04:18:04;;;;;;;7.07;5.43;;;14.50;99.90;;;;;;5035840;28;20434;-91
2022/09/08 04:20:33;;;;;;;9.33;4.67;;;14.50;99.90;;;;;;5035839;28;20268;-91
2022/09/08 04:22:59;;;;;;;3.93;3.53;;;14.50;99.90;;;;;;5035594;28;20171;-91
2022/09/08 04:25:24;;;;;;;5.77;5.20;;;14.50;99.90;;;;;;5035622;28;20483;-90
2022/09/08 04:27:50;;;;;;;4.87;4.37;;;14.50;99.90;;;;;;5035528;28;20545;-89
2022/09/08 04:30:15;;;;;;;6.87;4.77;;;14.50;99.90;;;;;;5035196;28;20282;-90
2022/09/08 04:32:41;;;;;;;5.60;4.20;;;14.50;99.90;;;;;;5056844;28;20588;-90
2022/09/08 04:35:08;;;;;;;5.40;3.87;;;14.50;99.90;;;;;;5039192;28;20209;-90
2022/09/08 04:37:33;;;;;;;6.27;4.83;;;14.50;99.90;;;;;;5039056;28;20190;-89
2022/09/08 04:39:59;;;;;;;5.17;3.83;;;14.50;99.90;;;;;;5038901;28;20782;-88
2022/09/08 04:42:24;;;;;;;5.60;4.87;;;14.40;99.90;;;;;;5038836;28;20169;-89
2022/09/08 04:44:50;;;;;;;5.97;5.30;;;14.40;99.90;;;;;;5038356;28;20182;-90
2022/09/08 04:47:15;;;;;;;5.60;4.50;;;14.30;99.90;;;;;;5038486;28;20518;-90
2022/09/08 04:49:41;;;;;;;4.33;3.83;;;14.30;99.90;;;;;;5038853;28;20194;-90
2022/09/08 04:52:06;;;;;;;7.53;5.10;;;14.30;99.90;;;;;;5038916;28;20176;-91
2022/09/08 04:54:32;;;;;;;6.13;5.27;;;14.30;99.90;;;;;;5038659;28;20305;-90
2022/09/08 04:56:57;;;;;;;7.37;4.73;;;14.30;99.90;;;;;;5038648;28;20182;-90
2022/09/08 04:59:25;;;;;;;4.70;3.43;;;14.30;99.90;;;;;;5038398;28;20585;-90
2022/09/08 05:01:50;;;;;;;4.43;3.80;;;14.30;99.90;;;;;;5038474;28;20270;-89
2022/09/08 05:04:16;;;;;;;5.83;4.77;;;14.30;99.90;;;;;;5056020;28;20446;-89
2022/09/08 05:06:41;;;;;;;8.97;5.17;;;14.30;99.90;;;;;;5038512;28;20183;-89
2022/09/08 05:09:07;;;;;;;5.93;4.40;;;14.30;99.90;;;;;;5038554;28;20200;-89
2022/09/08 05:11:34;;;;;;;4.00;3.10;;;14.30;99.90;;;;;;5038406;28;20674;-90
2022/09/08 05:14:01;;;;;;;4.13;2.93;;;14.30;99.90;;;;;;5055925;28;20162;-89
2022/09/08 05:16:28;;;;;;;4.37;3.60;;;14.40;99.90;;;;;;5054915;28;20521;-90
2022/09/08 05:18:57;;;;;;;5.73;4.13;;;14.40;99.90;;;;;;5055856;28;20419;-90
2022/09/08 05:21:23;;;;;;;4.17;3.70;;;14.50;99.90;;;;;;5055560;28;20425;-89
2022/09/08 05:23:51;;;;;;;4.57;3.43;;;14.50;99.90;;;;;;5037758;28;20445;-90
2022/09/08 05:26:18;;;;;;;5.67;4.17;;;14.60;99.90;;;;;;5036934;28;20432;-92
2022/09/08 05:28:44;;;;;;;6.53;4.40;;;14.70;99.90;;;;;;5038262;28;20902;-92
2022/09/08 05:31:30;;;;;;;4.70;4.03;;;14.70;99.90;;;;;;5021521;28;20454;-92
2022/09/08 05:33:58;;;;;;;4.20;3.80;;;14.70;99.90;;;;;;5032220;28;20454;-92
2022/09/08 05:36:27;;;;;;;5.40;4.27;;;14.70;99.90;;;;;;5055624;28;20548;-92
2022/09/08 05:38:54;;;;;;;4.63;3.53;;;14.70;99.90;;;;;;5037954;28;20418;-90
2022/09/08 05:41:20;;;;;;;3.40;2.77;;;14.80;99.90;;;;;;5037305;28;20418;-91
2022/09/08 05:43:46;;;;;;;3.93;3.53;;;14.80;99.90;;;;;;5037473;28;20769;-89
2022/09/08 05:46:12;;;;;;;4.83;3.43;;;14.90;99.90;;;;;;5037114;28;20411;-89
2022/09/08 05:48:37;;;;;;;6.63;3.70;;;15.00;99.90;;;;;;5037335;28;20194;-90
2022/09/08 05:51:09;;;;;;;4.33;3.73;;;15.00;99.90;;;;;;5037601;28;20509;-89
2022/09/08 05:53:35;;;;;;;4.30;3.37;;;15.00;99.90;;;;;;5055335;28;20168;-91
2022/09/08 05:56:02;;;;;;;4.37;3.60;;;15.10;99.90;;;;;;5037597;28;20530;-91
2022/09/08 05:58:29;;;;;;;4.87;3.70;;;15.20;99.90;;;;;;5037422;28;20177;-92
2022/09/08 06:01:01;;;;;;;4.77;3.27;;;15.30;99.90;;;;;;5037028;28;20437;-91
2022/09/08 06:03:27;;;;;;;4.30;3.50;;;15.40;99.90;;;;;;5055255;28;20411;-91
2022/09/08 06:05:54;;;;;;;4.30;3.40;;;15.50;99.90;;;;;;5037321;28;20429;-92
2022/09/08 06:08:21;;;;;;;2.77;2.47;;;15.60;99.90;;;;;;5037006;28;20897;-89
2022/09/08 06:10:51;;;;;;;4.17;3.30;;;15.80;99.90;;;;;;5036987;28;20429;-90
2022/09/08 06:13:17;;;;;;;6.23;3.40;;;15.90;99.90;;;;;;5054965;28;20418;-91
2022/09/08 06:15:43;;;;;;;3.37;2.87;;;16.00;99.90;;;;;;5036793;28;20981;-93
2022/09/08 06:18:08;;;;;;;3.43;2.13;;;16.10;99.90;;;;;;5037035;28;20185;-92
2022/09/08 06:20:38;;;;;;;3.43;1.90;;;16.10;99.90;;;;;;5053635;28;20790;-93
2022/09/08 06:23:04;;;;;;;3.27;2.50;;;16.10;99.90;;;;;;5036818;28;20180;-88
2022/09/08 06:25:29;;;;;;;4.13;3.20;;;16.30;99.90;;;;;;5037259;28;20425;-89
2022/09/08 06:27:59;;;;;;;5.20;2.67;;;16.30;99.90;;;;;;5047779;28;20432;-91
2022/09/08 06:30:25;;;;;;;3.00;2.00;;;16.40;99.90;;;;;;5036319;28;20257;-90
2022/09/08 06:32:59;;;;;;;2.80;1.93;;;16.40;99.90;;;;;;5054143;28;20518;-91
2022/09/08 06:35:31;;;;;;;3.90;2.90;;;16.40;99.90;;;;;;5053177;28;20276;-89
2022/09/08 06:38:01;;;;;;;2.47;1.93;;;16.40;99.90;;;;;;5036209;28;20418;-92
2022/09/08 06:40:43;;;;;;;4.03;2.53;;;16.40;99.90;;;;;;5036471;28;20525;-89
2022/09/08 06:43:18;;;;;;;2.13;1.57;;;16.40;99.90;;;;;;5036273;28;20425;-90
2022/09/08 06:45:48;;;;;;;3.27;2.07;;;16.30;99.90;;;;;;5035848;28;20884;-91
2022/09/08 06:48:32;;;;;;;3.70;2.50;;;16.30;99.90;;;;;;5036166;28;20409;-89
2022/09/08 06:51:25;;;;;;;3.13;2.10;;;16.20;99.90;;;;;;5035864;28;20763;-87
2022/09/08 06:54:11;;;;;;;5.10;1.93;;;16.20;99.90;;;;;;5051759;28;20446;-91
2022/09/08 06:57:01;;;;;;;3.13;2.40;;;16.10;99.90;;;;;;5044251;28;20474;-88
2022/09/08 06:59:35;;;;;;;3.90;2.00;;;16.70;99.90;;;;;;5035685;28;20507;-89
2022/09/08 07:02:18;;;;;;;4.50;2.57;;;16.40;99.90;;;;;;5035997;28;20959;-90
2022/09/08 07:05:11;;;;;;;2.60;1.67;;;16.20;99.90;;;;;;5034941;28;20485;-88
2022/09/08 07:07:57;;;;;;;3.20;1.70;;;16.10;99.90;;;;;;5051797;28;20459;-88
2022/09/08 07:10:35;;;;;;;3.37;1.90;;;16.10;99.90;;;;;;5035418;28;20450;-88
2022/09/08 07:13:20;;;;;;;2.90;1.97;;;16.10;99.90;;;;;;5047067;28;20761;-87
2022/09/08 07:16:03;;;;;;;3.00;1.17;;;16.10;99.90;;;;;;5044410;28;21115;-89
2022/09/08 07:18:39;;;;;;;4.33;1.53;;;16.10;99.90;;;;;;5053059;28;20793;-89
2022/09/08 07:21:30;;;;;;;3.13;1.80;;;16.10;99.90;;;;;;5047750;28;20428;-89
2022/09/08 07:24:00;;;;;;;2.60;1.60;;;16.10;99.90;;;;;;5051746;28;20418;-87
2022/09/08 07:26:47;;;;;;;3.20;2.00;;;16.10;99.90;;;;;;5050209;28;20451;-88
2022/09/08 07:29:20;;;;;;;3.03;1.43;;;16.10;99.90;;;;;;5034611;28;20426;-88
2022/09/08 07:31:49;;;;;;;3.00;1.70;;;16.00;99.90;;;;;;5051608;28;20915;-89
2022/09/08 07:34:22;;;;;;;3.97;1.77;;;16.00;99.90;;;;;;5051460;28;20424;-88
2022/09/08 07:36:53;;;;;;;2.80;1.20;;;16.00;99.90;;;;;;5051630;28;20951;-88
2022/09/08 07:39:37;;;;;;;2.47;1.23;;;16.00;99.90;;;;;;5051577;28;20424;-87
2022/09/08 07:42:05;;;;;;;3.73;1.90;;;16.00;99.90;;;;;;5051428;28;20417;-88
2022/09/08 07:44:33;;;;;;;2.07;1.60;;;16.00;19.10;;;;;;5034563;28;20422;-87
2022/09/08 07:47:30;;;;;;;3.10;1.57;;;16.00;17.40;;;;;;5052721;28;20433;-88
2022/09/08 07:49:58;;;;;;;2.70;1.53;;;16.00;28.90;;;;;;5034939;28;20427;-87
2022/09/08 07:52:48;;;;;;;3.53;1.60;;;16.00;8.00;;;;;;5052606;28;20772;-87
2022/09/08 07:55:37;;;;;;;2.10;1.10;;;16.00;99.90;;;;;;5034750;28;20986;-88
2022/09/08 07:58:27;;;;;;;1.83;0.97;;;16.00;99.90;;;;;;5052637;28;20776;-88
2022/09/08 08:01:19;;;;;;;3.60;1.40;;;16.00;32.40;;;;;;5052243;28;20413;-88
2022/09/08 08:03:55;;;;;;;2.20;1.20;;;16.00;2.60;;;;;;5052583;28;20421;-88
2022/09/08 08:06:39;;;;;;;2.40;1.37;;;16.00;46.50;;;;;;5053216;28;20960;-87
2022/09/08 08:09:15;;;;;;;3.53;1.30;;;16.10;8.10;;;;;;5056471;28;20489;-87
2022/09/08 08:12:14;;;;;;;2.70;0.90;;;16.10;23.00;;;;;;5056391;28;20418;-88
2022/09/08 08:14:52;;;;;;;4.17;2.47;;;16.10;4.60;;;;;;5055912;28;20459;-87
2022/09/08 08:17:36;;;;;;;2.60;0.90;;;16.20;52.00;;;;;;5055994;28;20471;-88
2022/09/08 08:20:26;;;;;;;2.80;1.57;;;16.20;1.00;;;;;;5056299;28;20417;-87
2022/09/08 08:23:26;;;;;;;2.30;1.33;;;16.30;18.50;;;;;;5038240;28;20427;-88
2022/09/08 08:26:09;;;;;;;4.33;1.50;;;16.40;1.00;;;;;;5055019;28;20413;-87
2022/09/08 08:28:44;;;;;;;4.80;2.30;;;16.50;1.00;;;;;;5038706;28;20964;-91
2022/09/08 08:31:38;;;;;;;3.30;1.40;;;16.60;1.00;;;;;;5056555;28;20426;-88
2022/09/08 08:34:26;;;;;;;2.60;1.40;;;16.60;1.00;;;;;;5056851;28;20402;-89
2022/09/08 08:36:57;;;;;;;2.17;1.13;;;16.70;1.00;;;;;;5038871;28;20438;-90
2022/09/08 08:39:24;;;;;;;1.53;0.80;;;16.80;1.00;;;;;;5054831;28;20901;-90
2022/09/08 08:42:03;;;;;;;1.87;0.70;;;16.80;99.90;;;;;;5038207;28;20430;-90
2022/09/08 08:44:51;;;;;;;3.43;2.13;;;16.80;99.90;;;;;;5055975;28;20427;-90
2022/09/08 08:47:45;;;;;;;2.80;1.67;;;16.80;1.00;;;;;;5038417;28;20423;-90
2022/09/08 08:50:21;;;;;;;4.90;1.37;;;16.80;1.00;;;;;;5054957;28;20516;-88
2022/09/08 08:52:53;;;;;;;3.20;0.87;;;16.80;1.00;;;;;;5038204;28;20425;-89
2022/09/08 08:55:55;;;;;;;2.90;1.17;;;16.80;99.90;;;;;;5038223;28;20468;-91
2022/09/08 08:58:46;;;;;;;3.10;1.07;;;16.90;99.90;;;;;;5047916;28;20433;-91
2022/09/08 09:01:38;;;;;;;2.57;1.03;;;17.00;1.00;;;;;;5055780;28;20760;-88
2022/09/08 09:04:12;;;;;;;3.00;1.10;;;17.00;99.90;;;;;;5038146;28;20516;-91
2022/09/08 09:06:53;;;;;;;2.67;1.10;;;17.10;1.00;;;;;;5037947;28;20503;-87
2022/09/08 09:09:34;;;;;;;2.10;1.00;;;17.10;99.90;;;;;;5054623;28;20507;-89
2022/09/08 09:12:11;;;;;;;1.30;1.00;;;17.20;1.00;;;;;;5055867;28;20424;-91
2022/09/08 09:15:19;;;;;;;3.17;1.17;;;17.30;1.00;;;;;;5055278;28;20747;-90
2022/09/08 09:18:10;;;;;;;3.67;0.90;;;17.40;99.90;;;;;;5053822;28;20980;-90
2022/09/08 09:20:56;;;;;;;4.60;1.40;;;17.50;99.90;;;;;;5037969;28;20926;-87
2022/09/08 09:23:37;;;;;;;2.07;1.20;;;17.40;99.90;;;;;;5037894;28;20439;-91
2022/09/08 09:26:17;;;;;;;2.70;1.47;;;17.40;1.00;;;;;;5054405;28;20964;-88
2022/09/08 09:29:01;;;;;;;1.47;1.00;;;17.40;99.90;;;;;;5037430;28;20494;-90
2022/09/08 09:32:01;;;;;;;3.37;1.07;;;17.50;99.90;;;;;;5055692;28;20410;-90
2022/09/08 09:34:45;;;;;;;5.47;2.13;;;17.50;99.90;;;;;;5054146;28;20434;-88
2022/09/08 09:37:47;;;;;;;2.80;1.83;;;17.60;99.90;;;;;;5055326;28;20419;-90
2022/09/08 09:40:45;;;;;;;3.10;1.30;;;17.70;1.00;;;;;;5054034;28;20940;-90
2022/09/08 09:43:49;;;;;;;2.50;1.40;;;17.80;99.90;;;;;;5054668;28;20464;-89
2022/09/08 09:46:48;;;;;;;2.83;1.60;;;17.80;1.00;;;;;;5053714;28;20504;-88
2022/09/08 09:49:38;;;;;;;3.57;1.23;;;17.80;1.00;;;;;;5054908;28;20406;-87
2022/09/08 09:52:14;;;;;;;3.10;1.97;;;17.70;99.90;;;;;;5054934;28;20422;-89
2022/09/08 09:54:48;;;;;;;2.90;1.90;;;17.60;99.90;;;;;;5037163;28;20422;-91
2022/09/08 09:57:50;;;;;;;3.93;2.30;;;17.50;99.90;;;;;;5053507;28;20520;-88
2022/09/08 10:00:25;;;;;;;3.37;1.40;;;17.40;99.90;;;;;;5036854;28;20414;-89
2022/09/08 10:03:15;;;;;;;2.80;1.93;;;17.50;1.00;;;;;;5054954;28;20419;-91
2022/09/08 10:06:26;;;;;;;2.57;1.80;;;17.40;1.00;;;;;;5053518;28;20564;-90
2022/09/08 10:09:19;;;;;;;3.87;1.97;;;17.40;99.90;;;;;;5021398;28;20425;-87
2022/09/08 10:12:03;;;;;;;4.60;2.23;;;17.20;99.90;;;;;;5053742;28;20425;-89
2022/09/08 10:15:18;;;;;;;1.80;1.23;;;17.10;1.00;;;;;;5052771;28;20410;-87
2022/09/08 10:18:05;;;;;;;3.63;1.30;;;17.00;1.00;;;;;;5054638;28;20961;-90
2022/09/08 10:21:04;;;;;;;4.37;1.60;;;16.90;1.00;;;;;;5053679;28;20578;-88
2022/09/08 10:24:05;;;;;;;2.10;1.20;;;16.80;1.00;;;;;;5054531;28;20415;-90
2022/09/08 10:27:01;;;;;;;3.13;2.10;;;16.80;1.00;;;;;;5036848;28;20466;-91
2022/09/08 10:29:58;;;;;;;2.57;1.20;;;16.90;99.90;;;;;;5053554;28;20423;-90
2022/09/08 10:32:45;;;;;;;4.30;1.50;;;17.00;99.90;;;;;;5054566;28;20410;-90
2022/09/08 10:35:35;;;;;;;2.50;1.30;;;17.00;99.90;;;;;;5052914;28;20817;-89
2022/09/08 10:38:30;;;;;;;2.17;1.20;;;17.00;1.00;;;;;;5054052;28;20414;-88
2022/09/08 10:40:56;;;;;;;4.40;2.00;;;16.90;1.10;;;;;;5036113;28;20521;-89
2022/09/08 10:43:37;;;;;;;3.20;1.90;;;16.80;99.90;;;;;;5052714;28;20452;-90
2022/09/08 10:46:21;;;;;;;4.00;2.47;;;16.50;1.00;;;;;;5052923;28;20576;-90
2022/09/08 10:49:29;;;;;;;5.43;2.57;;;16.10;99.90;;;;;;5052538;28;20919;-89
2022/09/08 10:52:21;;;;;;;4.20;1.77;;;15.60;99.90;;;;;;5035861;28;20998;-89
2022/09/08 10:55:08;;;;;;;2.17;1.30;;;15.20;99.90;;;;;;5053649;28;20415;-89
2022/09/08 10:58:06;;;;;;;2.97;2.20;;;15.10;99.90;;;;;;5053375;28;20402;-88
2022/09/08 11:00:43;;;;;;;2.93;2.00;;;15.00;99.90;;;;;;5035312;28;20409;-89
2022/09/08 11:03:38;;;;;;;3.47;2.20;;;14.80;99.90;;;;;;5052078;28;20507;-88
2022/09/08 11:06:15;;;;;;;4.90;3.00;;;14.90;99.90;;;;;;5047308;28;20483;-87
2022/09/08 11:09:06;;;;;;;6.10;2.80;;;14.80;99.90;;;;;;5053262;28;20401;-88
2022/09/08 11:11:57;;;;;;;3.07;2.07;;;14.80;99.90;;;;;;5052078;28;20503;-88
2022/09/08 11:14:58;;;;;;;5.10;3.63;;;14.80;99.90;;;;;;5052966;28;20444;-89
2022/09/08 11:17:35;;;;;;;6.00;2.03;;;14.80;99.90;;;;;;5035125;28;20483;-88
2022/09/08 11:20:21;;;;;;;8.93;3.50;;;14.90;99.90;;;;;;5051994;28;20528;-89
2022/09/08 11:23:06;;;;;;;4.30;2.67;;;15.00;99.90;;;;;;5052994;28;20825;-88
2022/09/08 11:25:59;;;;;;;6.80;3.47;;;14.80;99.90;;;;;;5053164;28;20523;-88
2022/09/08 11:28:45;;;;;;;4.93;3.57;;;14.90;99.90;;;;;;5052712;28;20503;-88
2022/09/08 11:31:25;;;;;;;5.90;3.40;;;14.90;99.90;;;;;;5051637;28;20513;-88
2022/09/08 11:34:15;;;;;;;5.10;3.47;;;15.00;99.90;;;;;;5035065;28;21010;-88
2022/09/08 11:37:11;;;;;;;4.47;3.17;;;15.10;99.90;;;;;;5052983;28;20941;-88
2022/09/08 11:40:10;;;;;;;3.20;2.90;;;15.20;99.90;;;;;;5053682;28;20882;-87
2022/09/08 11:43:13;;;;;;;4.43;2.73;;;15.40;99.90;;;;;;5039184;28;20469;-87
2022/09/08 11:46:04;;;;;;;3.90;2.40;;;15.40;99.90;;;;;;5055660;28;20473;-87
2022/09/08 11:48:39;;;;;;;7.63;3.00;;;15.50;99.90;;;;;;5055423;28;20421;-88
2022/09/08 11:52:08;;;;;;;5.47;3.00;;;15.60;99.90;;;;;;5055507;28;20422;-87
2022/09/08 11:54:36;;;;;;;3.10;2.63;;;15.60;99.90;;;;;;5014830;28;20505;-87
2022/09/08 11:57:35;;;;;;;3.97;3.00;;;15.40;99.90;;;;;;5038598;28;20427;-87
2022/09/08 12:00:21;;;;;;;3.67;2.47;;;15.40;99.90;;;;;;5056161;28;20477;-88
2022/09/08 12:03:28;;;;;;;3.83;2.40;;;15.40;99.90;;;;;;5038598;28;20964;-87
2022/09/08 12:06:31;;;;;;;4.27;3.27;;;15.40;99.90;;;;;;5056195;28;20466;-86
2022/09/08 12:09:14;;;;;;;6.70;3.40;;;15.40;99.90;;;;;;5056217;28;20558;-87
2022/09/08 12:12:16;;;;;;;3.70;3.30;;;15.20;99.90;;;;;;5056257;28;20417;-87
2022/09/08 12:15:00;;;;;;;6.40;3.67;;;15.30;99.90;;;;;;5055781;28;20475;-87
2022/09/08 12:17:47;;;;;;;4.77;3.37;;;15.20;99.90;;;;;;5056131;28;20462;-87
2022/09/08 12:20:29;;;;;;;5.10;4.30;;;15.10;99.90;;;;;;5038258;28;20475;-87
2022/09/08 12:23:22;;;;;;;7.00;3.37;;;15.20;99.90;;;;;;5055906;28;20425;-87
2022/09/08 12:25:55;;;;;;;6.10;3.40;;;15.00;99.90;;;;;;5055995;28;20472;-88
2022/09/08 12:28:36;;;;;;;3.47;3.10;;;15.00;99.90;;;;;;5055607;28;20461;-88
2022/09/08 12:31:26;;;;;;;6.77;4.90;;;15.10;99.90;;;;;;5054801;28;20418;-88
2022/09/08 12:34:10;;;;;;;3.57;2.97;;;15.10;99.90;;;;;;5056056;28;20420;-89
2022/09/08 12:36:50;;;;;;;3.50;2.87;;;15.10;99.90;;;;;;5055947;28;20774;-88
2022/09/08 12:39:52;;;;;;;3.87;3.03;;;15.10;99.90;;;;;;5038109;28;20426;-88
2022/09/08 12:42:31;;;;;;;4.33;2.70;;;15.10;99.90;;;;;;5056274;28;20411;-88
2022/09/08 12:45:09;;;;;;;2.90;2.30;;;15.10;99.90;;;;;;5056538;28;20460;-88
2022/09/08 12:48:05;;;;;;;3.73;2.23;;;15.10;99.90;;;;;;5057926;28;20430;-88
2022/09/08 12:50:46;;;;;;;3.83;2.23;;;15.00;99.90;;;;;;5054901;28;20497;-88
2022/09/08 12:53:14;;;;;;;3.33;2.80;;;15.10;99.90;;;;;;5056181;28;20501;-90
2022/09/08 12:55:52;;;;;;;3.00;2.20;;;14.90;99.90;;;;;;5057974;28;20399;-85
2022/09/08 12:58:22;;;;;;;3.90;2.43;;;14.80;99.90;;;;;;5060951;28;20414;-92
2022/09/08 13:01:01;;;;;;;2.77;2.00;;;14.90;99.90;;;;;;5058755;28;20449;-89
2022/09/08 13:03:38;;;;;;;1.73;1.20;;;14.90;99.90;;;;;;5056616;28;20420;-90
2022/09/08 13:06:25;;;;;;;4.50;3.40;;;14.90;99.90;;;;;;5038584;28;20480;-90
2022/09/08 13:08:58;;;;;;;2.67;1.83;;;14.80;99.90;;;;;;5053663;28;20422;-86
2022/09/08 13:12:10;;;;;;;3.33;2.27;;;14.80;99.90;;;;;;5055039;28;20474;-88
2022/09/08 13:15:12;;;;;;;2.60;1.60;;;14.70;99.90;;;;;;5041365;28;20421;-89
2022/09/08 13:17:46;;;;;;;2.30;1.33;;;14.70;99.90;;;;;;5074691;28;20459;-90
2022/09/08 13:20:42;;;;;;;3.00;1.70;;;14.70;99.90;;;;;;5057073;28;20450;-88
2022/09/08 13:23:28;;;;;;;3.37;2.00;;;14.70;99.90;;;;;;5063925;28;20424;-93
2022/09/08 13:26:23;;;;;;;2.37;1.77;;;14.70;99.90;;;;;;5074063;28;20532;-90
2022/09/08 13:29:10;;;;;;;5.93;1.90;;;14.60;99.90;;;;;;5056788;28;20800;-87
2022/09/08 13:32:14;;;;;;;2.57;2.00;;;14.70;99.90;;;;;;5074040;28;20769;-88
2022/09/08 13:34:59;;;;;;;3.93;2.60;;;14.70;99.90;;;;;;5056010;28;20423;-89
2022/09/08 13:38:02;;;;;;;2.43;1.87;;;14.60;99.90;;;;;;5074267;28;20769;-87
2022/09/08 13:41:10;;;;;;;2.77;2.03;;;14.60;99.90;;;;;;5074583;28;20733;-86
2022/09/08 13:44:02;;;;;;;2.87;1.30;;;14.70;99.90;;;;;;5012798;28;20423;-88